Qu Shan Hai — H3JA — position and weather

sailwx.info

Track history (hours):
 
Tides and Currents Weather Stations Pressure Air Temp Water Temp Dewpoint Dewpoint Depression Visibility Wind Speed Wind Dir Waves Ship Positions

Qu Shan Hai

Last reported at 2018-Jan-09 01:34 UTC. Time now 2018-Jan-19 13:29 UTC.
Position N 01°16' E 104°06'.
Warning: this ship's position is 10 days out of date.

Length 190 m; draft 11.3 m.

Type: Cargo ship. MMSI: 353693000.

Date/timePositionNaut miles runAvg speedWind from/ knotsBaromVisibWave heightAir tempDewpointWater temp
2018-Jan-09 01:34N 01°16' E 104°06'4 7.3
2018-Jan-09 01:01N 01°17' E 104°02'1 6.1
2018-Jan-09 00:54N 01°17' E 104°02'1 3.1
2018-Jan-09 00:28N 01°18' E 104°01'0 0.3
2018-Jan-08 23:51N 01°18' E 104°01'0 0.0
2018-Jan-08 23:29N 01°18' E 104°01'0 0.1
2018-Jan-08 22:32N 01°18' E 104°01'0 0.0
2018-Jan-08 22:08N 01°18' E 104°01'0 0.1
2018-Jan-08 21:50N 01°18' E 104°01'0 0.0
2018-Jan-08 21:30N 01°18' E 104°01'0 0.0
2018-Jan-08 20:48N 01°18' E 104°01'0 0.0
2018-Jan-08 20:22N 01°18' E 104°01'0 0.0
2018-Jan-08 19:56N 01°18' E 104°01'0 0.0
2018-Jan-08 19:28N 01°18' E 104°01'0 0.0
2018-Jan-08 18:58N 01°18' E 104°01'0 0.0
2018-Jan-08 18:09N 01°18' E 104°01'0 0.0
2018-Jan-08 17:56N 01°18' E 104°01'0 0.0
2018-Jan-08 17:30N 01°18' E 104°01'0 0.2
2018-Jan-08 16:58N 01°18' E 104°01'2 4.3
2018-Jan-08 16:25N 01°16' E 103°59'2 5.4
2018-Jan-08 15:59N 01°15' E 103°57'2 4.5
2018-Jan-08 15:30N 01°13' E 103°56'3 6.4
2018-Jan-08 14:59N 01°12' E 103°53'510.1
2018-Jan-08 14:30N 01°10' E 103°48'610.7
2018-Jan-08 13:59N 01°06' E 103°44'611.7
2018-Jan-08 13:30N 01°03' E 103°39'611.5
2018-Jan-08 12:58N 01°06' E 103°34'611.3
2018-Jan-08 12:29N 01°08' E 103°29'611.3
2018-Jan-08 11:59N 01°11' E 103°24'611.2
2018-Jan-08 11:25N 01°16' E 103°20'  
Track history (hours):
 
Tides and Currents Weather Stations Pressure Air Temp Water Temp Dewpoint Dewpoint Depression Visibility Wind Speed Wind Dir Waves Ship Positions

Qu Shan Hai

Last reported at 2018-Jan-09 01:34 UTC. Time now 2018-Jan-19 13:29 UTC.
Position N 01°16' E 104°06'.
Warning: this ship's position is 10 days out of date.

Length 190 m; draft 11.3 m.

Type: Cargo ship. MMSI: 353693000.

Date/timePositionNaut miles runAvg speedWind from/ knotsBaromVisibWave heightAir tempDewpointWater temp
2018-Jan-09 01:34N 01°16' E 104°06'4 7.3
2018-Jan-09 01:01N 01°17' E 104°02'1 6.1
2018-Jan-09 00:54N 01°17' E 104°02'1 3.1
2018-Jan-09 00:28N 01°18' E 104°01'0 0.3
2018-Jan-08 23:51N 01°18' E 104°01'0 0.0
2018-Jan-08 23:29N 01°18' E 104°01'0 0.1
2018-Jan-08 22:32N 01°18' E 104°01'0 0.0
2018-Jan-08 22:08N 01°18' E 104°01'0 0.1
2018-Jan-08 21:50N 01°18' E 104°01'0 0.0
2018-Jan-08 21:30N 01°18' E 104°01'0 0.0
2018-Jan-08 20:48N 01°18' E 104°01'0 0.0
2018-Jan-08 20:22N 01°18' E 104°01'0 0.0
2018-Jan-08 19:56N 01°18' E 104°01'0 0.0
2018-Jan-08 19:28N 01°18' E 104°01'0 0.0
2018-Jan-08 18:58N 01°18' E 104°01'0 0.0
2018-Jan-08 18:09N 01°18' E 104°01'0 0.0
2018-Jan-08 17:56N 01°18' E 104°01'0 0.0
2018-Jan-08 17:30N 01°18' E 104°01'0 0.2
2018-Jan-08 16:58N 01°18' E 104°01'2 4.3
2018-Jan-08 16:25N 01°16' E 103°59'2 5.4
2018-Jan-08 15:59N 01°15' E 103°57'2 4.5
2018-Jan-08 15:30N 01°13' E 103°56'3 6.4
2018-Jan-08 14:59N 01°12' E 103°53'510.1
2018-Jan-08 14:30N 01°10' E 103°48'610.7
2018-Jan-08 13:59N 01°06' E 103°44'611.7
2018-Jan-08 13:30N 01°03' E 103°39'611.5
2018-Jan-08 12:58N 01°06' E 103°34'611.3
2018-Jan-08 12:29N 01°08' E 103°29'611.3
2018-Jan-08 11:59N 01°11' E 103°24'611.2
2018-Jan-08 11:25N 01°16' E 103°20'  

Dump ship's entire track history